Ashwood, Oregon
Current Conditions -  °F | °C
As of 1:55 PM on Sunday 21 Dec 2014 (Local Time) from KS39 Reporting Station
Overcast Overcast  
Wind Chill: 46°   Ceiling: 3700
Heat Index: 46°   Visibility: 10mi
Dew Point: 45°   Wind: 0mph
Humidity: 93%   Direction: NA
Pressure: 30.07"   Gusts: NA
Location:  44.73°N, 120.76°W
Report Text: KS39 212155Z AUTO 00000KT 10SM OVC037 08/07 A3007 RMK AO2
Loading
Personal Weather Stations






























Interactive Weather Map New forecast layout! Learn more

10-Day Weather Forecast

Advertisements
Track Severe Weather on mobile